Latest Coastal Weather Observations for Hogan Island

IDV60701

Issued at 5:55 am EST Friday 25 July 2014 (issued every 10 minutes, with the page automatically refreshed every 10 minutes)

About coastal observations | Map of coastal stations | Coastal observations for VIC | Marine services | Other Formats
Station Details ID: 200838 Name: HOGAN ISLAND Lat: -39.22 Lon: 146.98 Height: 116.0 m
Data from the previous 72 hours. | See also: Recent months at Hogan Island
Date/Time
EST
Temp

°C
Wind Pressure Rain
since 9am
mm
Weather Cloud Vis
km
Sea
Height
m
Swell
Dir
 
Speed
knots
Gust
knots
hPa Trend Height
m
Period
s
Dir
25/05:30am 11.6 NNE 13 16 1014.4 - 0.2 - - - - - - -
25/05:00am 11.6 NE 14 18 1014.4 - 0.2 - - - - - - -
25/04:30am 11.9 NE 15 17 1014.4 - 0.2 - - - - - - -
25/04:00am 11.9 NE 14 16 1014.6 - 0.0 - - - - - - -
25/03:30am 11.8 NE 12 15 1014.6 - 0.0 - - - - - - -
25/03:00am 11.8 NE 9 10 1014.7 - 0.0 - - - - - - -
25/02:30am 12.0 NE 12 15 1015.1 - 0.0 - - - - - - -
25/02:00am 11.6 NE 11 13 1014.9 - 0.0 - - - - - - -
25/01:30am 11.5 NE 12 14 1014.7 - 0.0 - - - - - - -
25/01:00am 11.6 NE 12 13 1014.8 - 0.0 - - - - - - -
25/12:30am 11.9 ENE 14 16 1014.7 - 0.0 - - - - - - -
25/12:00am 11.7 NE 14 18 1015.2 - 0.0 - - - - - - -
 
Date/Time
EST
Temp

°C
Wind Pressure Rain
since 9am
mm
Weather Cloud Vis
km
Sea
Height
m
Swell
Dir
 
Speed
knots
Gust
knots
hPa Trend Height
m
Period
s
Dir
24/11:30pm 12.0 NE 14 16 1015.6 - 0.0 - - - - - - -
24/11:00pm 11.6 E 14 17 1015.4 - 0.0 - - - - - - -
24/10:30pm 11.8 ENE 11 14 1015.5 - 0.0 - - - - - - -
24/10:00pm 11.6 NE 9 11 1016.1 - 0.0 - - - - - - -
24/09:30pm 11.6 NE 11 12 1016.1 - 0.0 - - - - - - -
24/09:00pm 11.5 NE 12 15 1016.2 - 0.0 - - - - - - -
24/08:30pm 11.4 NE 12 16 1016.1 - 0.0 - - - - - - -
24/08:00pm 11.0 ENE 8 12 1015.9 - 0.0 - - - - - - -
24/07:30pm 11.0 E 6 8 1015.6 - 0.0 - - - - - - -
24/07:00pm 11.0 E 5 7 1015.7 - 0.0 - - - - - - -
24/06:30pm 10.8 NNE 4 6 1015.9 - 0.0 - - - - - - -
24/06:00pm 11.0 NNW 8 10 1016.0 - 0.0 - - - - - - -
24/05:30pm 10.7 N 9 11 1015.8 - 0.0 - - - - - - -
24/05:00pm 10.5 NNE 10 11 1015.7 - 0.0 - - - - - - -
24/04:30pm 10.7 NNE 10 12 1015.7 - 0.0 - - - - - - -
24/04:00pm 10.8 NE 8 10 1015.3 - 0.0 - - - - - - -
24/03:30pm 11.5 NE 5 7 1015.2 - 0.0 - - - - - - -
24/03:00pm 11.4 N 8 9 1015.3 - 0.0 - - - - - - -
24/02:30pm 11.5 N 8 9 1015.1 - 0.0 - - - - - - -
24/02:00pm 11.3 NNE 8 9 1015.1 - 0.0 - - - - - - -
24/01:30pm 11.1 NNE 9 10 1015.3 - 0.0 - - - - - - -
24/01:00pm 11.4 NE 10 11 1015.5 - 0.0 - - - - - - -
24/12:30pm 11.4 NNE 12 13 1016.3 - 0.0 - - - - - - -
24/12:00pm 11.6 NE 12 14 1016.8 - 0.0 - - - - - - -
24/11:30am 12.4 NE 13 15 1017.2 - 0.0 - - - - - - -
24/11:00am 12.5 ENE 12 14 1017.1 - 0.0 - - - - - - -
24/10:30am 13.3 ENE 13 15 1017.5 - 0.0 - - - - - - -
24/10:00am 12.9 ENE 12 14 1017.6 - 0.0 - - - - - - -
24/09:30am 12.2 NE 11 13 1017.6 - 0.0 - - - - - - -
24/09:00am 11.2 NE 11 12 1018.0 - 0.0 - - - - - - -
24/08:30am 10.8 NE 11 13 1017.7 - 0.0 - - - - - - -
24/08:00am 10.7 NE 10 12 1017.8 - 0.0 - - - - - - -
24/07:30am 10.5 NNE 11 13 1017.8 - 0.0 - - - - - - -
24/07:00am 11.1 NE 13 16 1017.8 - 0.0 - - - - - - -
24/06:30am 11.2 NE 14 16 1017.5 - 0.0 - - - - - - -
24/06:00am 11.5 ENE 15 17 1017.4 - 0.0 - - - - - - -
24/05:30am 11.6 E 17 20 1017.0 - 0.0 - - - - - - -
24/05:00am 11.7 ENE 18 21 1017.1 - 0.0 - - - - - - -
24/04:30am 11.7 ENE 17 19 1017.2 - 0.0 - - - - - - -
24/04:00am 11.5 ENE 16 18 1017.5 - 0.0 - - - - - - -
24/03:30am 11.4 ENE 16 18 1017.7 - 0.0 - - - - - - -
24/03:00am 11.3 NE 14 17 1018.1 - 0.0 - - - - - - -
24/02:30am 11.3 NE 16 18 1017.9 - 0.0 - - - - - - -
24/02:00am 11.0 NE 14 16 1018.2 - 0.0 - - - - - - -
24/01:30am 11.1 NE 15 17 1018.2 - 0.0 - - - - - - -
24/01:00am 10.9 NE 15 17 1018.4 - 0.0 - - - - - - -
24/12:30am 11.0 NE 14 16 1018.6 - 0.0 - - - - - - -
24/12:00am 11.2 ENE 16 18 1019.1 - 0.0 - - - - - - -
 
Date/Time
EST
Temp

°C
Wind Pressure Rain
since 9am
mm
Weather Cloud Vis
km
Sea
Height
m
Swell
Dir
 
Speed
knots
Gust
knots
hPa Trend Height
m
Period
s
Dir
23/11:30pm 11.1 ENE 17 20 1019.4 - 0.0 - - - - - - -
23/11:00pm 11.2 ENE 17 19 1019.9 - 0.0 - - - - - - -
23/10:30pm 10.9 ENE 16 18 1020.2 - 0.0 - - - - - - -
23/10:00pm 10.8 ENE 15 17 1020.7 - 0.0 - - - - - - -
23/09:30pm 10.9 ENE 15 17 1020.9 - 0.0 - - - - - - -
23/09:00pm 10.7 ENE 14 16 1021.0 - 0.0 - - - - - - -
23/08:30pm 10.6 ENE 12 14 1020.8 - 0.0 - - - - - - -
23/08:00pm 10.3 ENE 13 15 1020.8 - 0.0 - - - - - - -
23/07:30pm 10.5 E 11 13 1020.9 - 0.0 - - - - - - -
23/07:00pm 10.5 E 12 15 1020.9 - 0.0 - - - - - - -
23/06:30pm 10.3 E 11 14 1020.8 - 0.0 - - - - - - -
23/06:00pm 10.1 E 11 13 1020.8 - 0.0 - - - - - - -
23/05:30pm 10.2 E 11 13 1020.4 - 0.0 - - - - - - -
23/05:00pm 10.1 ENE 11 13 1020.4 - 0.0 - - - - - - -
23/04:30pm 10.2 ENE 9 11 1020.6 - 0.0 - - - - - - -
23/04:00pm 10.5 NE 8 10 1020.8 - 0.0 - - - - - - -
23/03:30pm 11.6 ENE 10 11 1020.6 - 0.0 - - - - - - -
23/03:00pm 12.1 ENE 10 12 1020.7 - 0.0 - - - - - - -
23/02:30pm 12.7 ENE 8 11 1020.8 - 0.0 - - - - - - -
23/02:00pm 12.9 ENE 8 11 1021.2 - 0.0 - - - - - - -
23/01:30pm 12.9 ENE 8 11 1021.6 - 0.0 - - - - - - -
23/01:00pm 12.8 ENE 9 11 1021.8 - 0.0 - - - - - - -
23/12:30pm 12.9 ENE 9 11 1022.3 - 0.0 - - - - - - -
23/12:00pm 12.8 ENE 8 10 1022.9 - 0.0 - - - - - - -
23/11:30am 12.7 ENE 9 10 1023.3 - 0.0 - - - - - - -
23/11:00am 12.9 ENE 8 11 1023.8 - 0.0 - - - - - - -
23/10:30am 12.7 ENE 8 10 1024.0 - 0.0 - - - - - - -
23/10:00am 12.3 E 4 7 1024.2 - 0.0 - - - - - - -
23/09:30am 12.3 ENE 7 8 1024.3 - 0.0 - - - - - - -
23/09:00am 10.9 ENE 6 7 1024.6 - 0.0 - - - - - - -
23/08:30am 10.4 E 7 9 1024.3 - 0.0 - - - - - - -
23/08:00am 10.8 ENE 6 8 1024.1 - 0.0 - - - - - - -
23/07:30am 9.3 ESE 6 6 1023.9 - 0.0 - - - - - - -
23/07:00am 9.4 SE 4 6 1023.9 - 0.0 - - - - - - -
23/06:30am 9.2 SSE 5 6 1023.6 - 0.0 - - - - - - -
23/06:00am 9.0 SSE 6 8 1023.5 - 0.0 - - - - - - -
23/05:30am 9.0 SSE 6 7 1023.4 - 0.0 - - - - - - -
23/05:00am 8.9 S 5 7 1023.4 - 0.0 - - - - - - -
23/04:30am 8.8 SE 5 6 1023.5 - 0.0 - - - - - - -
23/04:00am 9.2 SE 5 6 1023.5 - 0.0 - - - - - - -
23/03:30am 9.6 SE 4 5 1023.6 - 0.0 - - - - - - -
23/03:00am 9.9 CALM 0 0 1023.8 - 0.0 - - - - - - -
23/02:30am 10.1 CALM 0 0 1024.1 - 0.0 - - - - - - -
23/02:00am 10.0 CALM 0 0 1024.2 - 0.0 - - - - - - -
23/01:30am 10.0 CALM 0 0 1024.1 - 0.0 - - - - - - -
23/01:00am 9.8 CALM 0 0 1024.1 - 0.0 - - - - - - -
23/12:30am 9.8 ESE 2 5 1024.1 - 0.0 - - - - - - -
23/12:00am 9.8 CALM 0 0 1024.5 - 0.0 - - - - - - -
 
Date/Time
EST
Temp

°C
Wind Pressure Rain
since 9am
mm
Weather Cloud Vis
km
Sea
Height
m
Swell
Dir
 
Speed
knots
Gust
knots
hPa Trend Height
m
Period
s
Dir
22/11:30pm 10.1 CALM 0 0 1024.7 - 0.0 - - - - - - -
22/11:00pm 9.7 SE 3 6 1024.8 - 0.0 - - - - - - -
22/10:30pm 9.4 SSE 5 6 1024.8 - 0.0 - - - - - - -
22/10:00pm 9.3 SE 4 6 1024.9 - 0.0 - - - - - - -
22/09:30pm 9.1 SE 6 7 1024.9 - 0.0 - - - - - - -
22/09:00pm 9.3 SE 5 7 1025.0 - 0.0 - - - - - - -
22/08:30pm 8.9 SE 7 8 1024.7 - 0.0 - - - - - - -
22/08:00pm 9.1 SE 6 8 1024.7 - 0.0 - - - - - - -
22/07:30pm 9.2 SE 6 7 1024.7 - 0.0 - - - - - - -
22/07:00pm 9.1 SE 6 7 1024.7 - 0.0 - - - - - - -
22/06:30pm 9.1 S 6 8 1024.7 - 0.0 - - - - - - -
22/06:00pm 9.1 S 6 8 1024.7 - 0.0 - - - - - - -
22/05:30pm 9.7 S 5 6 1024.5 - 0.0 - - - - - - -
22/05:00pm 9.8 SSW 5 6 1024.5 - 0.0 - - - - - - -
22/04:30pm 10.7 SSW 5 6 1024.4 - 0.0 - - - - - - -
22/04:00pm 11.8 SW 8 10 1024.4 - 0.0 - - - - - - -
22/03:30pm 12.1 SW 9 11 1024.4 - 0.0 - - - - - - -
22/03:00pm 12.4 SW 9 12 1024.5 - 0.0 - - - - - - -
22/02:30pm 12.6 SW 9 12 1024.2 - 0.0 - - - - - - -
22/02:00pm 12.6 SW 9 12 1024.3 - 0.0 - - - - - - -
22/01:30pm 12.8 SW 9 11 1024.5 - 0.0 - - - - - - -
22/01:00pm 13.1 SW 9 11 1024.7 - 0.0 - - - - - - -
22/12:30pm 13.0 SW 8 11 1025.0 - 0.0 - - - - - - -
22/12:00pm 12.7 SW 8 11 1025.5 - 0.0 - - - - - - -
22/11:30am 13.1 SSW 8 10 1025.7 - 0.0 - - - - - - -
22/11:00am 12.5 SSW 7 9 1026.0 - 0.0 - - - - - - -
22/10:30am 12.3 SSW 5 7 1026.2 - 0.0 - - - - - - -
22/10:00am 12.3 SSW 6 7 1026.2 - 0.0 - - - - - - -
22/09:30am 11.8 S 5 7 1026.1 - 0.0 - - - - - - -
22/09:00am 11.0 S 6 7 1026.3 - 0.0 - - - - - - -
22/08:30am 10.4 S 6 8 1025.8 - 0.0 - - - - - - -
22/08:00am 9.4 S 6 7 1025.6 - 0.0 - - - - - - -
22/07:30am 8.7 SSW 6 7 1025.4 - 0.0 - - - - - - -
22/07:00am 8.7 SSW 6 7 1025.0 - 0.0 - - - - - - -
22/06:30am 8.5 S 6 8 1024.9 - 0.0 - - - - - - -
22/06:00am 8.8 SSW 5 6 1024.8 - 0.0 - - - - - - -

Other Formats:

Comma delimited format used in spreadsheet applications
http://www.bom.gov.au/fwo/IDV60701/IDV60701.94949.axf

JavaScript Object Notation format (JSON) in row-major order
http://www.bom.gov.au/fwo/IDV60701/IDV60701.94949.json